Lady Rosebud — 3FAF5 — position and weather

sailwx.info

Track history (hours):
 
Tides and Currents Weather Stations Pressure Air Temp Water Temp Dewpoint Dewpoint Depression Visibility Wind Speed Wind Dir Waves Ship Positions

Lady Rosebud

Last reported at 2017-Oct-15 07:33 UTC. Time now 2017-Oct-20 08:54 UTC.
Position N 04°49' W 003°03'.

Length 143 m; draft 7.2 m.

Type: Ship. MMSI: 351698000.

Date/timePositionNaut miles runAvg speedWind from/ knotsBaromVisibWave heightAir tempDewpointWater temp
2017-Oct-15 07:33N 04°49' W 003°03'218.9
2017-Oct-15 07:27N 04°48' W 003°01'918.8
2017-Oct-15 06:59N 04°46' W 002°53'1019.0
2017-Oct-15 06:29N 04°43' W 002°44'1019.0
2017-Oct-15 05:59N 04°40' W 002°34'919.2
2017-Oct-15 05:31N 04°38' W 002°26'1019.1
2017-Oct-15 05:00N 04°35' W 002°17'1019.0
2017-Oct-15 04:30N 04°32' W 002°07'1118.3
2017-Oct-15 03:55N 04°31' W 001°57'12117.8
2017-Oct-14 21:08N 05°20' W 000°06'218.2
2017-Oct-14 21:00N 05°22' W 000°05'918.4
2017-Oct-14 20:31N 05°29' E 000°01'815.8
2017-Oct-14 20:00N 05°37' E 000°03'2 4.6
2017-Oct-14 19:30N 05°38' E 000°01'0 0.0
2017-Oct-14 19:00N 05°38' E 000°01'0 0.0
2017-Oct-14 18:30N 05°38' E 000°01'0 0.0
2017-Oct-14 18:00N 05°38' E 000°01'0 0.0
2017-Oct-14 17:30N 05°38' E 000°01'0 0.0
2017-Oct-14 17:00N 05°38' E 000°01'0 0.0
2017-Oct-14 16:30N 05°38' E 000°01'0 0.0
2017-Oct-14 16:00N 05°38' E 000°01'0 0.0
2017-Oct-14 15:30N 05°38' E 000°01'0 0.0
2017-Oct-14 15:00N 05°38' E 000°01'0 0.0
2017-Oct-14 14:30N 05°38' E 000°01'0 0.0
2017-Oct-14 14:00N 05°38' E 000°01'0 0.0
2017-Oct-14 13:30N 05°38' E 000°01'0 0.0
2017-Oct-14 13:00N 05°38' E 000°01'0 0.0
2017-Oct-14 12:30N 05°38' E 000°01'0 0.0
2017-Oct-14 12:00N 05°38' E 000°01'0 0.3
2017-Oct-14 11:30N 05°38' E 000°01'2 4.2
2017-Oct-14 11:00N 05°37' E 000°03'4 8.9
2017-Oct-14 10:30N 05°34' E 000°06'713.6
2017-Oct-14 10:00N 05°29' E 000°10'918.5
2017-Oct-14 09:30N 05°25' E 000°19'918.3
2017-Oct-14 09:00N 05°21' E 000°27'  
2017-Oct-10 03:44N 04°34' W 002°11'519.3
2017-Oct-10 03:29N 04°35' W 002°15'1019.0
2017-Oct-10 02:59N 04°38' W 002°24'1019.2
2017-Oct-10 02:29N 04°40' W 002°33'1019.0
2017-Oct-10 01:59N 04°43' W 002°43'  
Track history (hours):
 
Tides and Currents Weather Stations Pressure Air Temp Water Temp Dewpoint Dewpoint Depression Visibility Wind Speed Wind Dir Waves Ship Positions

Lady Rosebud

Last reported at 2017-Oct-15 07:33 UTC. Time now 2017-Oct-20 08:54 UTC.
Position N 04°49' W 003°03'.

Length 143 m; draft 7.2 m.

Type: Ship. MMSI: 351698000.

Date/timePositionNaut miles runAvg speedWind from/ knotsBaromVisibWave heightAir tempDewpointWater temp
2017-Oct-15 07:33N 04°49' W 003°03'218.9
2017-Oct-15 07:27N 04°48' W 003°01'918.8
2017-Oct-15 06:59N 04°46' W 002°53'1019.0
2017-Oct-15 06:29N 04°43' W 002°44'1019.0
2017-Oct-15 05:59N 04°40' W 002°34'919.2
2017-Oct-15 05:31N 04°38' W 002°26'1019.1
2017-Oct-15 05:00N 04°35' W 002°17'1019.0
2017-Oct-15 04:30N 04°32' W 002°07'1118.3
2017-Oct-15 03:55N 04°31' W 001°57'12117.8
2017-Oct-14 21:08N 05°20' W 000°06'218.2
2017-Oct-14 21:00N 05°22' W 000°05'918.4
2017-Oct-14 20:31N 05°29' E 000°01'815.8
2017-Oct-14 20:00N 05°37' E 000°03'2 4.6
2017-Oct-14 19:30N 05°38' E 000°01'0 0.0
2017-Oct-14 19:00N 05°38' E 000°01'0 0.0
2017-Oct-14 18:30N 05°38' E 000°01'0 0.0
2017-Oct-14 18:00N 05°38' E 000°01'0 0.0
2017-Oct-14 17:30N 05°38' E 000°01'0 0.0
2017-Oct-14 17:00N 05°38' E 000°01'0 0.0
2017-Oct-14 16:30N 05°38' E 000°01'0 0.0
2017-Oct-14 16:00N 05°38' E 000°01'0 0.0
2017-Oct-14 15:30N 05°38' E 000°01'0 0.0
2017-Oct-14 15:00N 05°38' E 000°01'0 0.0
2017-Oct-14 14:30N 05°38' E 000°01'0 0.0
2017-Oct-14 14:00N 05°38' E 000°01'0 0.0
2017-Oct-14 13:30N 05°38' E 000°01'0 0.0
2017-Oct-14 13:00N 05°38' E 000°01'0 0.0
2017-Oct-14 12:30N 05°38' E 000°01'0 0.0
2017-Oct-14 12:00N 05°38' E 000°01'0 0.3
2017-Oct-14 11:30N 05°38' E 000°01'2 4.2
2017-Oct-14 11:00N 05°37' E 000°03'4 8.9
2017-Oct-14 10:30N 05°34' E 000°06'713.6
2017-Oct-14 10:00N 05°29' E 000°10'918.5
2017-Oct-14 09:30N 05°25' E 000°19'918.3
2017-Oct-14 09:00N 05°21' E 000°27'  
2017-Oct-10 03:44N 04°34' W 002°11'519.3
2017-Oct-10 03:29N 04°35' W 002°15'1019.0
2017-Oct-10 02:59N 04°38' W 002°24'1019.2
2017-Oct-10 02:29N 04°40' W 002°33'1019.0
2017-Oct-10 01:59N 04°43' W 002°43'  

Dump ship's entire track history